Terminal Aerodrome Forecast
Issued by NWS

Current Version | Previous Version | Text Only | Print | Product List | Glossary On
Versions: 1 2 3 4 5 6 7 8 9 10 11 12 13 14 15 16 17 18 19 20 21 22 23 24 25 26 27
131
FTUS45 KRIW 282329
TAFPNA
TAF
KPNA 282329Z 2900/2924 32018G28KT P6SM VCTS SCT050CB BKN080
      TEMPO 2900/2902 VRB20G35KT -TSRA SCT030CB BKN050
     FM290300 30012G18KT P6SM VCSH SCT080 BKN100
     FM290600 07007KT P6SM FEW100
     FM291600 30011KT P6SM SCT060 BKN080
     FM292100 30016G28KT P6SM VCTS SCT060CB BKN090
      AMD LTD TO CLD VIS AND WIND=

USA.gov is the U.S. government's official web portal to all federal, state and local government web resources and services.